Time;durP1;ratioP1;P1;durP2;ratioP2;P2;SDS_P1;SDS_P2;PMS_P1;PMS_P2;Temp;Humidity;BMP_temperature;BMP_pressure;BME280_temperature;BME280_humidity;BME280_pressure;Samples;Min_cycle;Max_cycle;Signal;HPM_P1;HPM_P2
2021/09/01 00:00:33;;;;;;;13.38;5.22;;;;;;;;;;5041304;28;20395;-85
2021/09/01 00:02:58;;;;;;;6.57;4.45;;;;;;;;;;5038294;28;20426;-85
2021/09/01 00:05:26;;;;;;;12.48;4.80;;;;;;;;;;5041844;28;20112;-85
2021/09/01 00:07:51;;;;;;;10.75;4.47;;;;;;;;;;5025832;28;20128;-85
2021/09/01 00:10:18;;;;;;;10.25;5.40;;;;;;;;;;5042862;28;20482;-85
2021/09/01 00:12:45;;;;;;;7.57;4.28;;;;;;;;;;5043297;28;20045;-85
2021/09/01 00:15:12;;;;;;;7.82;5.35;;;;;;;;;;5026597;28;20034;-85
2021/09/01 00:17:37;;;;;;;6.70;4.93;;;;;;;;;;5044544;28;20174;-85
2021/09/01 00:20:07;;;;;;;13.82;6.05;;;;;;;;;;5042450;28;20426;-85
2021/09/01 00:22:34;;;;;;;7.88;5.05;;;;;;;;;;5044296;28;20470;-85
2021/09/01 00:25:01;;;;;;;8.13;4.82;;;;;;;;;;5065297;28;20059;-85
2021/09/01 00:27:26;;;;;;;11.57;5.90;;;;;;;;;;5065010;28;20406;-84
2021/09/01 00:29:52;;;;;;;10.70;5.43;;;;;;;;;;5064286;28;20074;-85
2021/09/01 00:32:19;;;;;;;9.13;6.10;;;;;;;;;;5064509;28;20071;-85
2021/09/01 00:34:47;;;;;;;10.65;5.50;;;;;;;;;;5079995;28;20044;-85
2021/09/01 00:37:12;;;;;;;7.13;5.22;;;;;;;;;;5063715;28;20480;-85
2021/09/01 00:39:39;;;;;;;7.95;5.55;;;;;;;;;;5062691;28;20044;-85
2021/09/01 00:42:06;;;;;;;10.35;5.28;;;;;;;;;;5061325;28;20580;-85
2021/09/01 00:44:32;;;;;;;19.63;5.95;;;;;;;;;;5062913;28;20096;-85
2021/09/01 00:46:58;;;;;;;9.23;5.90;;;;;;;;;;5062839;28;20028;-85
2021/09/01 00:49:26;;;;;;;9.90;4.93;;;;;;;;;;5063640;28;20103;-85
2021/09/01 00:51:51;;;;;;;10.88;4.65;;;;;;;;;;5079881;28;20415;-84
2021/09/01 00:54:20;;;;;;;9.60;4.85;;;;;;;;;;5046852;28;20043;-85
2021/09/01 00:56:52;;;;;;;6.47;4.22;;;;;;;;;;5042306;28;20037;-85
2021/09/01 00:59:19;;;;;;;14.20;5.03;;;;;;;;;;5059007;28;20044;-85
2021/09/01 01:01:47;;;;;;;9.77;4.50;;;;;;;;;;5043078;28;20041;-85
2021/09/01 01:04:13;;;;;;;10.93;5.47;;;;;;;;;;5058437;28;20173;-85
2021/09/01 01:06:39;;;;;;;11.63;5.20;;;;;;;;;;5040883;28;20066;-84
2021/09/01 01:09:04;;;;;;;13.38;6.13;;;;;;;;;;5041231;28;20048;-84
2021/09/01 01:11:33;;;;;;;11.73;5.50;;;;;;;;;;5059516;28;20041;-84
2021/09/01 01:14:00;;;;;;;10.65;5.97;;;;;;;;;;5040711;28;20082;-84
2021/09/01 01:16:27;;;;;;;13.00;6.72;;;;;;;;;;5057012;28;20033;-84
2021/09/01 01:18:59;;;;;;;7.80;5.15;;;;;;;;;;5039744;28;20033;-84
2021/09/01 01:21:27;;;;;;;9.65;6.07;;;;;;;;;;5039807;28;20387;-85
2021/09/01 01:23:59;;;;;;;7.55;5.05;;;;;;;;;;5053062;28;20489;-85
2021/09/01 01:26:26;;;;;;;13.20;6.15;;;;;;;;;;5078106;28;20032;-85
2021/09/01 01:29:01;;;;;;;10.82;5.68;;;;;;;;;;5060740;28;20055;-84
2021/09/01 01:31:27;;;;;;;14.40;6.47;;;;;;;;;;5060409;28;20414;-83
2021/09/01 01:33:53;;;;;;;9.60;5.30;;;;;;;;;;5059134;28;20044;-84
2021/09/01 01:36:22;;;;;;;11.35;5.38;;;;;;;;;;5077255;28;20044;-85
2021/09/01 01:38:49;;;;;;;10.38;5.50;;;;;;;;;;5059997;28;20571;-85
2021/09/01 01:41:18;;;;;;;9.95;5.43;;;;;;;;;;5060470;28;20123;-85
2021/09/01 01:43:45;;;;;;;12.90;5.82;;;;;;;;;;5060706;28;20033;-85
2021/09/01 01:46:11;;;;;;;12.93;6.15;;;;;;;;;;5060776;28;20036;-85
2021/09/01 01:48:37;;;;;;;11.45;5.68;;;;;;;;;;5076538;28;20057;-85
2021/09/01 01:51:06;;;;;;;12.32;5.50;;;;;;;;;;5075806;28;20032;-85
2021/09/01 01:53:39;;;;;;;10.70;5.90;;;;;;;;;;5049964;28;20052;-84
2021/09/01 01:56:05;;;;;;;11.73;5.53;;;;;;;;;;5039496;28;20057;-83
2021/09/01 01:58:33;;;;;;;9.32;4.93;;;;;;;;;;5056158;28;20482;-84
2021/09/01 02:00:58;;;;;;;14.25;6.47;;;;;;;;;;5039190;28;20036;-83
2021/09/01 02:03:24;;;;;;;13.35;6.22;;;;;;;;;;5039144;28;20058;-84
2021/09/01 02:05:50;;;;;;;10.77;5.47;;;;;;;;;;5039420;28;20494;-84
2021/09/01 02:08:15;;;;;;;14.18;6.25;;;;;;;;;;5055358;28;20037;-84
2021/09/01 02:10:43;;;;;;;15.85;6.25;;;;;;;;;;5039106;28;20051;-84
2021/09/01 02:13:09;;;;;;;12.88;5.93;;;;;;;;;;5039257;28;20048;-83
2021/09/01 02:15:35;;;;;;;12.43;5.78;;;;;;;;;;5039696;28;20048;-80
2021/09/01 02:18:00;;;;;;;11.75;6.22;;;;;;;;;;5059759;28;20033;-79
2021/09/01 02:20:28;;;;;;;9.82;6.18;;;;;;;;;;5062673;28;20090;-79
2021/09/01 02:22:53;;;;;;;14.40;6.72;;;;;;;;;;5049118;28;20036;-79
2021/09/01 02:25:21;;;;;;;12.23;6.85;;;;;;;;;;5063177;28;20028;-80
2021/09/01 02:27:46;;;;;;;18.40;6.88;;;;;;;;;;5068589;28;20029;-80
2021/09/01 02:30:12;;;;;;;11.95;6.72;;;;;;;;;;5086820;28;20047;-80
2021/09/01 02:32:38;;;;;;;16.45;7.10;;;;;;;;;;5065824;28;20044;-79
2021/09/01 02:35:04;;;;;;;16.70;7.65;;;;;;;;;;5081217;28;20466;-80
2021/09/01 02:37:30;;;;;;;18.45;8.63;;;;;;;;;;5064100;28;20039;-80
2021/09/01 02:39:55;;;;;;;15.10;7.53;;;;;;;;;;5080389;28;20033;-79
2021/09/01 02:42:20;;;;;;;16.05;8.15;;;;;;;;;;5080536;28;20110;-81
2021/09/01 02:44:46;;;;;;;18.67;8.80;;;;;;;;;;5080538;28;20559;-80
2021/09/01 02:47:14;;;;;;;16.92;9.48;;;;;;;;;;5063736;28;20062;-81
2021/09/01 02:49:39;;;;;;;19.00;9.75;;;;;;;;;;5080809;28;20105;-80
2021/09/01 02:52:08;;;;;;;19.48;9.85;;;;;;;;;;5064647;28;20032;-82
2021/09/01 02:54:34;;;;;;;19.80;10.30;;;;;;;;;;5063160;28;20036;-77
2021/09/01 02:57:00;;;;;;;22.73;11.52;;;;;;;;;;5056011;28;20524;-78
2021/09/01 02:59:25;;;;;;;16.23;9.95;;;;;;;;;;5059434;28;20033;-79
2021/09/01 03:01:51;;;;;;;20.48;10.82;;;;;;;;;;5040741;28;20049;-78
2021/09/01 03:04:16;;;;;;;23.15;11.45;;;;;;;;;;5040911;28;20036;-78
2021/09/01 03:06:43;;;;;;;24.23;10.90;;;;;;;;;;5060211;28;20051;-79
2021/09/01 03:09:08;;;;;;;20.23;10.43;;;;;;;;;;5041509;28;20387;-78
2021/09/01 03:11:36;;;;;;;16.98;10.32;;;;;;;;;;5059365;28;20170;-78
2021/09/01 03:14:01;;;;;;;18.17;10.77;;;;;;;;;;5042359;28;20118;-78
2021/09/01 03:16:27;;;;;;;20.60;10.65;;;;;;;;;;5059877;28;20550;-78
2021/09/01 03:18:52;;;;;;;20.90;10.23;;;;;;;;;;5059591;28;20041;-78
2021/09/01 03:21:19;;;;;;;19.13;10.10;;;;;;;;;;5060527;28;20041;-79
2021/09/01 03:23:48;;;;;;;24.65;9.73;;;;;;;;;;5032583;28;20399;-78
2021/09/01 03:26:13;;;;;;;17.80;8.65;;;;;;;;;;5039154;28;20101;-78
2021/09/01 03:28:40;;;;;;;17.70;8.52;;;;;;;;;;5039604;28;20069;-78
2021/09/01 03:31:10;;;;;;;20.00;8.95;;;;;;;;;;5023487;28;20041;-78
2021/09/01 03:33:36;;;;;;;24.17;10.50;;;;;;;;;;5038640;28;20054;-78
2021/09/01 03:36:03;;;;;;;22.42;8.27;;;;;;;;;;5039366;28;20385;-79
2021/09/01 03:38:29;;;;;;;17.05;8.75;;;;;;;;;;5022338;28;20124;-78
2021/09/01 03:40:55;;;;;;;20.10;8.98;;;;;;;;;;5022785;28;20511;-78
2021/09/01 03:43:22;;;;;;;17.73;7.82;;;;;;;;;;5023098;28;20407;-79
2021/09/01 03:45:49;;;;;;;17.73;7.88;;;;;;;;;;5039407;28;20222;-79
2021/09/01 03:48:14;;;;;;;17.02;8.07;;;;;;;;;;5021759;28;20044;-78
2021/09/01 03:50:40;;;;;;;16.00;7.10;;;;;;;;;;5039039;28;20033;-78
2021/09/01 03:53:05;;;;;;;13.45;7.22;;;;;;;;;;5045647;28;20036;-78
2021/09/01 03:55:30;;;;;;;19.50;8.45;;;;;;;;;;5041709;28;20037;-79
2021/09/01 03:57:58;;;;;;;19.80;9.68;;;;;;;;;;5041390;28;20033;-79
2021/09/01 04:00:24;;;;;;;25.08;9.68;;;;;;;;;;5060186;28;20534;-79
2021/09/01 04:02:51;;;;;;;21.98;9.73;;;;;;;;;;5057275;28;20052;-78
2021/09/01 04:05:16;;;;;;;23.75;10.32;;;;;;;;;;5040108;28;20106;-78
2021/09/01 04:07:44;;;;;;;19.92;10.18;;;;;;;;;;5056492;28;20123;-78
2021/09/01 04:10:10;;;;;;;23.40;9.65;;;;;;;;;;5040556;28;20483;-78
2021/09/01 04:12:35;;;;;;;16.33;8.85;;;;;;;;;;5039453;28;20032;-78
2021/09/01 04:15:01;;;;;;;17.98;9.60;;;;;;;;;;5038291;28;20051;-77
2021/09/01 04:17:30;;;;;;;17.58;8.32;;;;;;;;;;5053318;28;20036;-77
2021/09/01 04:19:56;;;;;;;23.10;9.73;;;;;;;;;;5054766;28;20075;-77
2021/09/01 04:22:21;;;;;;;17.27;9.10;;;;;;;;;;5038091;28;20029;-77
2021/09/01 04:24:46;;;;;;;17.58;9.07;;;;;;;;;;5036784;28;20527;-79
2021/09/01 04:27:14;;;;;;;16.13;8.30;;;;;;;;;;5020431;28;20044;-80
2021/09/01 04:29:40;;;;;;;16.90;9.82;;;;;;;;;;5018101;28;20029;-78
2021/09/01 04:32:06;;;;;;;18.00;9.02;;;;;;;;;;5018501;28;20103;-78
2021/09/01 04:34:33;;;;;;;20.33;9.38;;;;;;;;;;5035801;28;20499;-80
2021/09/01 04:36:59;;;;;;;16.83;9.13;;;;;;;;;;5019407;28;20084;-77
2021/09/01 04:39:24;;;;;;;18.95;9.02;;;;;;;;;;5017439;28;20041;-77
2021/09/01 04:41:50;;;;;;;19.38;9.25;;;;;;;;;;5032668;28;20041;-78
2021/09/01 04:44:15;;;;;;;19.60;9.02;;;;;;;;;;5032630;28;20029;-77
2021/09/01 04:46:40;;;;;;;18.10;8.60;;;;;;;;;;5016626;28;20079;-77
2021/09/01 04:49:06;;;;;;;25.50;10.98;;;;;;;;;;5032648;28;20156;-77
2021/09/01 04:51:32;;;;;;;19.98;8.70;;;;;;;;;;5016383;28;20037;-77
2021/09/01 04:53:59;;;;;;;21.83;9.60;;;;;;;;;;5033100;28;20495;-77
2021/09/01 04:56:25;;;;;;;18.75;8.98;;;;;;;;;;5016407;28;20026;-77
2021/09/01 04:58:52;;;;;;;18.98;8.95;;;;;;;;;;5032806;28;20510;-77
2021/09/01 05:01:17;;;;;;;20.65;9.13;;;;;;;;;;5034258;28;20034;-77
2021/09/01 05:03:43;;;;;;;20.13;9.50;;;;;;;;;;5034057;28;20033;-77
2021/09/01 05:06:08;;;;;;;18.60;7.80;;;;;;;;;;5032528;28;20045;-77
2021/09/01 05:08:34;;;;;;;25.20;7.90;;;;;;;;;;5020567;28;20027;-77
2021/09/01 05:11:00;;;;;;;18.48;7.07;;;;;;;;;;5035753;28;20127;-77
2021/09/01 05:13:25;;;;;;;21.70;8.25;;;;;;;;;;5052119;28;20410;-77
2021/09/01 05:15:51;;;;;;;15.80;7.65;;;;;;;;;;5035688;28;20036;-77
2021/09/01 05:18:16;;;;;;;19.10;7.57;;;;;;;;;;5035565;28;20035;-77
2021/09/01 05:20:42;;;;;;;16.70;7.55;;;;;;;;;;5052211;28;20437;-77
2021/09/01 05:23:08;;;;;;;17.70;7.35;;;;;;;;;;5053468;28;20032;-77
2021/09/01 05:25:51;;;;;;;18.55;7.68;;;;;;;;;;5035243;28;20035;-77
2021/09/01 05:28:17;;;;;;;22.23;8.82;;;;;;;;;;5052050;28;20517;-77
2021/09/01 05:30:47;;;;;;;14.48;7.80;;;;;;;;;;5052491;28;20469;-77
2021/09/01 05:33:13;;;;;;;22.85;8.23;;;;;;;;;;5053112;28;20049;-77
2021/09/01 05:35:38;;;;;;;21.55;8.00;;;;;;;;;;5035371;28;20041;-77
2021/09/01 05:38:05;;;;;;;22.80;7.57;;;;;;;;;;5053088;28;20033;-77
2021/09/01 05:40:30;;;;;;;19.73;7.47;;;;;;;;;;5052038;28;20072;-77
2021/09/01 05:42:58;;;;;;;19.55;7.28;;;;;;;;;;5052120;28;20459;-77
2021/09/01 05:45:24;;;;;;;15.85;7.55;;;;;;;;;;5051944;28;20033;-77
2021/09/01 05:47:50;;;;;;;12.30;7.05;;;;;;;;;;5035097;28;20068;-77
2021/09/01 05:50:17;;;;;;;15.02;7.22;;;;;;;;;;5051757;28;20043;-77
2021/09/01 05:52:42;;;;;;;12.32;7.63;;;;;;;;;;5051949;28;20075;-77
2021/09/01 05:55:10;;;;;;;15.65;7.68;;;;;;;;;;5050768;28;20076;-77
2021/09/01 05:57:44;;;;;;;15.43;7.38;;;;;;;;;;5051076;28;20116;-77
2021/09/01 06:00:14;;;;;;;20.15;6.65;;;;;;;;;;5053451;28;20033;-77
2021/09/01 06:02:53;;;;;;;18.75;7.50;;;;;;;;;;5056168;28;20032;-77
2021/09/01 06:05:22;;;;;;;12.45;6.22;;;;;;;;;;5039068;28;20067;-77
2021/09/01 06:07:53;;;;;;;13.40;6.45;;;;;;;;;;5038729;28;20037;-77
2021/09/01 06:10:31;;;;;;;17.75;6.82;;;;;;;;;;5055650;28;20041;-77
2021/09/01 06:13:03;;;;;;;15.93;5.95;;;;;;;;;;5055519;28;20040;-76
2021/09/01 06:15:30;;;;;;;15.60;6.30;;;;;;;;;;5056579;28;20119;-77
2021/09/01 06:17:56;;;;;;;13.38;5.93;;;;;;;;;;5055263;28;20079;-77
2021/09/01 06:20:22;;;;;;;17.33;6.72;;;;;;;;;;5055355;28;20071;-76
2021/09/01 06:22:48;;;;;;;13.75;6.03;;;;;;;;;;5038865;28;20167;-76
2021/09/01 06:25:13;;;;;;;13.10;6.63;;;;;;;;;;5038624;28;20098;-76
2021/09/01 06:27:39;;;;;;;16.80;6.03;;;;;;;;;;5055242;28;20445;-77
2021/09/01 06:30:06;;;;;;;12.18;5.47;;;;;;;;;;5055061;28;20059;-77
2021/09/01 06:32:32;;;;;;;19.73;6.75;;;;;;;;;;5054732;28;20120;-77
2021/09/01 06:34:58;;;;;;;14.43;6.28;;;;;;;;;;5038343;28;20102;-77
2021/09/01 06:37:24;;;;;;;15.98;6.60;;;;;;;;;;5056241;28;20036;-77
2021/09/01 06:39:53;;;;;;;13.60;6.90;;;;;;;;;;5039807;28;20129;-77
2021/09/01 06:42:20;;;;;;;19.33;5.75;;;;;;;;;;5036179;28;20426;-77
2021/09/01 06:44:46;;;;;;;16.67;6.28;;;;;;;;;;5018355;28;20037;-77
2021/09/01 06:47:11;;;;;;;15.93;5.57;;;;;;;;;;5018288;28;20033;-76
2021/09/01 06:49:39;;;;;;;16.77;6.78;;;;;;;;;;5018069;28;20048;-77
2021/09/01 06:52:05;;;;;;;18.00;6.30;;;;;;;;;;5035075;28;20045;-77
2021/09/01 06:54:31;;;;;;;13.25;5.75;;;;;;;;;;5035938;28;20037;-77
2021/09/01 06:56:57;;;;;;;16.75;6.13;;;;;;;;;;5018092;28;20053;-77
2021/09/01 06:59:24;;;;;;;18.90;5.57;;;;;;;;;;5034868;28;20467;-77
2021/09/01 07:01:50;;;;;;;15.90;5.38;;;;;;;;;;5018653;28;20483;-77
2021/09/01 07:04:16;;;;;;;14.02;5.25;;;;;;;;;;5034648;28;20087;-77
2021/09/01 07:06:43;;;;;;;10.38;5.45;;;;;;;;;;5018348;28;20034;-76
2021/09/01 07:09:08;;;;;;;13.38;5.72;;;;;;;;;;5043980;28;20048;-76
2021/09/01 07:11:34;;;;;;;19.30;5.82;;;;;;;;;;5054026;28;20059;-77
2021/09/01 07:14:00;;;;;;;11.35;6.03;;;;;;;;;;5037447;28;20037;-77
2021/09/01 07:16:26;;;;;;;14.57;6.18;;;;;;;;;;5037629;28;20037;-77
2021/09/01 07:18:52;;;;;;;18.58;5.95;;;;;;;;;;5055250;28;20041;-77
2021/09/01 07:21:18;;;;;;;16.65;5.53;;;;;;;;;;5037730;28;20029;-77
2021/09/01 07:23:45;;;;;;;16.88;7.25;;;;;;;;;;5055293;28;20028;-77
2021/09/01 07:26:12;;;;;;;13.95;6.68;;;;;;;;;;5037244;28;20033;-77
2021/09/01 07:28:39;;;;;;;17.15;5.45;;;;;;;;;;5053982;28;20040;-76
2021/09/01 07:31:06;;;;;;;16.58;6.03;;;;;;;;;;5037374;28;20033;-77
2021/09/01 07:33:32;;;;;;;13.65;6.22;;;;;;;;;;5037145;28;20052;-77
2021/09/01 07:35:58;;;;;;;17.00;5.10;;;;;;;;;;5055196;28;20033;-77
2021/09/01 07:38:25;;;;;;;15.43;5.60;;;;;;;;;;5037256;28;20479;-77
2021/09/01 07:40:51;;;;;;;18.42;5.85;;;;;;;;;;5054038;28;20048;-77
2021/09/01 07:43:18;;;;;;;12.82;5.25;;;;;;;;;;5053918;28;20037;-77
2021/09/01 07:45:45;;;;;;;14.65;5.65;;;;;;;;;;5037165;28;20118;-77
2021/09/01 07:48:15;;;;;;;12.02;5.60;;;;;;;;;;5055146;28;20025;-76
2021/09/01 07:50:41;;;;;;;14.77;5.22;;;;;;;;;;5055073;28;20036;-77
2021/09/01 07:53:07;;;;;;;10.93;4.93;;;;;;;;;;5037091;28;20086;-77
2021/09/01 07:55:33;;;;;;;17.38;5.65;;;;;;;;;;5053700;28;20049;-77
2021/09/01 07:57:58;;;;;;;12.70;6.57;;;;;;;;;;5037302;28;20066;-77
2021/09/01 08:00:24;;;;;;;20.70;5.85;;;;;;;;;;5054811;28;20037;-77
2021/09/01 08:02:52;;;;;;;18.08;5.55;;;;;;;;;;5053675;28;20029;-77
2021/09/01 08:05:18;;;;;;;12.35;5.85;;;;;;;;;;5037215;28;20040;-77
2021/09/01 08:07:43;;;;;;;13.57;4.95;;;;;;;;;;5036756;28;20033;-77
2021/09/01 08:10:09;;;;;;;14.50;5.00;;;;;;;;;;5035501;28;20033;-77
2021/09/01 08:12:35;;;;;;;10.40;4.63;;;;;;;;;;5033569;28;20094;-77
2021/09/01 08:15:01;;;;;;;16.30;4.68;;;;;;;;;;5033633;28;20041;-77
2021/09/01 08:17:26;;;;;;;8.20;4.65;;;;;;;;;;5033362;28;20490;-77
2021/09/01 08:19:52;;;;;;;9.23;4.15;;;;;;;;;;5033275;28;20072;-77
2021/09/01 08:22:18;;;;;;;10.07;3.92;;;;;;;;;;5034495;28;20068;-76
2021/09/01 08:24:44;;;;;;;13.02;5.32;;;;;;;;;;5015589;28;20036;-77
2021/09/01 08:27:12;;;;;;;9.40;5.28;;;;;;;;;;5034273;28;20021;-77
2021/09/01 08:29:39;;;;;;;11.52;5.03;;;;;;;;;;5016973;28;20037;-77
2021/09/01 08:32:05;;;;;;;10.95;4.78;;;;;;;;;;5034286;28;20064;-77
2021/09/01 08:34:31;;;;;;;9.60;5.03;;;;;;;;;;5016797;28;20030;-77
2021/09/01 08:36:59;;;;;;;11.38;4.40;;;;;;;;;;5032836;28;20044;-77
2021/09/01 08:39:24;;;;;;;17.25;5.00;;;;;;;;;;5032898;28;20411;-77
2021/09/01 08:41:51;;;;;;;8.32;4.00;;;;;;;;;;5033231;28;20041;-77
2021/09/01 08:44:18;;;;;;;16.00;4.68;;;;;;;;;;5033058;28;20119;-77
2021/09/01 08:46:49;;;;;;;11.95;4.60;;;;;;;;;;5032996;28;20042;-77
2021/09/01 08:49:17;;;;;;;10.32;4.22;;;;;;;;;;5016302;28;20037;-77
2021/09/01 08:51:43;;;;;;;9.23;4.22;;;;;;;;;;5032868;28;20037;-77
2021/09/01 08:54:08;;;;;;;8.15;4.35;;;;;;;;;;5032760;28;20037;-77
2021/09/01 08:56:34;;;;;;;17.10;4.53;;;;;;;;;;5033832;28;20037;-77
2021/09/01 08:59:00;;;;;;;17.48;5.28;;;;;;;;;;5033722;28;20041;-77
2021/09/01 09:01:46;;;;;;;13.18;4.53;;;;;;;;;;5016202;28;20091;-77
2021/09/01 09:04:17;;;;;;;11.30;4.65;;;;;;;;;;5032375;28;20045;-77
2021/09/01 09:06:44;;;;;;;11.40;4.47;;;;;;;;;;5032717;28;20041;-77
2021/09/01 09:09:19;;;;;;;10.70;4.50;;;;;;;;;;5035462;28;20051;-77
2021/09/01 09:11:46;;;;;;;12.35;4.78;;;;;;;;;;5059980;28;20036;-77
2021/09/01 09:14:21;;;;;;;12.93;4.28;;;;;;;;;;5076660;28;20032;-79
2021/09/01 09:17:06;;;;;;;9.57;4.93;;;;;;;;;;5077851;28;20036;-79
2021/09/01 09:20:07;;;;;;;9.43;4.90;;;;;;;;;;5062878;28;20086;-79
2021/09/01 09:22:39;;;;;;;10.27;4.53;;;;;;;;;;5064717;28;20028;-79
2021/09/01 09:25:18;;;;;;;9.45;4.68;;;;;;;;;;5081985;28;20041;-78
2021/09/01 09:27:50;;;;;;;12.43;4.28;;;;;;;;;;5077887;28;20054;-77
2021/09/01 09:30:38;;;;;;;11.50;4.53;;;;;;;;;;5075567;28;20592;-78
2021/09/01 09:33:16;;;;;;;12.93;4.20;;;;;;;;;;5063358;28;20054;-79
2021/09/01 09:35:49;;;;;;;9.40;3.88;;;;;;;;;;5077153;28;20238;-79
2021/09/01 09:38:25;;;;;;;9.65;3.58;;;;;;;;;;5057500;28;20149;-80
2021/09/01 09:40:50;;;;;;;;;;;;;;;;;;5058941;28;20059;-78
2021/09/01 09:43:18;;;;;;;9.87;4.07;;;;;;;;;;5041695;28;19963;-79
2021/09/01 09:45:47;;;;;;;12.82;4.05;;;;;;;;;;5059773;28;20283;-81
2021/09/01 09:48:14;;;;;;;8.80;4.07;;;;;;;;;;5041620;28;20040;-78
2021/09/01 09:50:49;;;;;;;10.13;3.88;;;;;;;;;;5043896;28;20037;-78
2021/09/01 09:53:33;;;;;;;8.77;3.67;;;;;;;;;;5057977;28;20036;-80
2021/09/01 09:56:07;;;;;;;12.30;3.97;;;;;;;;;;5057368;28;20037;-80
2021/09/01 09:58:36;;;;;;;7.78;4.20;;;;;;;;;;5060869;28;20033;-81
2021/09/01 10:01:07;;;;;;;10.02;4.07;;;;;;;;;;5049177;28;20036;-82
2021/09/01 10:03:35;;;;;;;11.02;3.95;;;;;;;;;;5049192;28;20091;-82
2021/09/01 10:06:03;;;;;;;13.20;4.25;;;;;;;;;;5038044;28;20033;-82
2021/09/01 10:08:30;;;;;;;8.02;3.90;;;;;;;;;;5059268;28;20431;-78
2021/09/01 10:10:58;;;;;;;7.78;3.90;;;;;;;;;;5075406;28;20024;-80
2021/09/01 10:13:25;;;;;;;6.13;3.60;;;;;;;;;;5075548;28;20501;-83
2021/09/01 10:15:53;;;;;;;10.27;4.45;;;;;;;;;;5075810;28;20074;-81
2021/09/01 10:18:19;;;;;;;8.23;3.85;;;;;;;;;;5075560;28;20098;-81
2021/09/01 10:20:45;;;;;;;11.65;4.00;;;;;;;;;;5075553;28;20032;-80
2021/09/01 10:23:10;;;;;;;9.40;4.10;;;;;;;;;;5075012;28;20033;-81
2021/09/01 10:25:49;;;;;;;10.88;4.55;;;;;;;;;;5075548;28;20037;-81
2021/09/01 10:28:20;;;;;;;11.73;4.57;;;;;;;;;;5076159;28;20033;-80
2021/09/01 10:31:14;;;;;;;10.18;4.13;;;;;;;;;;5075916;28;20039;-80
2021/09/01 10:33:41;;;;;;;13.57;3.83;;;;;;;;;;5076285;28;20053;-80
2021/09/01 10:36:24;;;;;;;11.60;4.22;;;;;;;;;;5059829;28;20051;-79
2021/09/01 10:38:54;;;;;;;9.10;4.00;;;;;;;;;;5052391;28;20047;-80
2021/09/01 10:41:27;;;;;;;7.47;3.90;;;;;;;;;;5039523;28;20040;-79
2021/09/01 10:44:05;;;;;;;10.93;3.95;;;;;;;;;;5055877;28;20096;-79
2021/09/01 10:47:00;;;;;;;10.02;3.30;;;;;;;;;;5056607;28;20041;-80
2021/09/01 10:49:48;;;;;;;11.17;4.43;;;;;;;;;;5058233;28;20522;-79
2021/09/01 10:52:14;;;;;;;13.10;4.07;;;;;;;;;;5043011;28;20379;-80
2021/09/01 10:54:41;;;;;;;10.00;3.95;;;;;;;;;;5060269;28;20029;-80
2021/09/01 10:57:24;;;;;;;12.55;4.47;;;;;;;;;;5058666;28;20033;-81
2021/09/01 10:59:50;;;;;;;8.38;3.88;;;;;;;;;;5058920;28;20494;-79
2021/09/01 11:02:20;;;;;;;8.05;4.70;;;;;;;;;;5041722;28;20052;-79
2021/09/01 11:04:47;;;;;;;12.75;4.22;;;;;;;;;;5058821;28;20033;-79
2021/09/01 11:07:33;;;;;;;6.88;3.50;;;;;;;;;;5058281;28;20029;-80
2021/09/01 11:10:02;;;;;;;8.68;4.03;;;;;;;;;;5025734;28;20439;-79
2021/09/01 11:12:30;;;;;;;8.70;4.00;;;;;;;;;;5022138;28;20037;-80
2021/09/01 11:14:56;;;;;;;8.25;3.60;;;;;;;;;;5021787;28;20038;-79
2021/09/01 11:17:28;;;;;;;13.85;4.40;;;;;;;;;;5022006;28;20137;-79
2021/09/01 11:20:00;;;;;;;7.85;3.90;;;;;;;;;;5021732;28;20052;-79
2021/09/01 11:22:31;;;;;;;14.90;4.32;;;;;;;;;;5038210;28;20491;-80
2021/09/01 11:25:01;;;;;;;11.10;4.20;;;;;;;;;;5021865;28;20037;-79
2021/09/01 11:27:27;;;;;;;8.48;4.00;;;;;;;;;;5037802;28;20438;-80
2021/09/01 11:30:07;;;;;;;11.30;5.10;;;;;;;;;;5037669;28;20068;-80
2021/09/01 11:32:34;;;;;;;15.15;4.20;;;;;;;;;;5037441;28;20057;-79
2021/09/01 11:35:03;;;;;;;11.68;3.97;;;;;;;;;;5020806;28;20128;-79
2021/09/01 11:37:29;;;;;;;7.53;4.32;;;;;;;;;;5037001;28;20486;-80
2021/09/01 11:39:54;;;;;;;10.15;4.32;;;;;;;;;;5053851;28;20525;-80
2021/09/01 11:42:20;;;;;;;9.07;4.15;;;;;;;;;;5057634;28;20033;-79
2021/09/01 11:44:57;;;;;;;10.82;4.45;;;;;;;;;;5058078;28;20037;-81
2021/09/01 11:47:23;;;;;;;10.73;4.60;;;;;;;;;;5040701;28;20041;-80
2021/09/01 11:49:50;;;;;;;7.05;4.07;;;;;;;;;;5057275;28;20047;-80
2021/09/01 11:52:32;;;;;;;10.95;4.80;;;;;;;;;;5041316;28;20044;-80
2021/09/01 11:54:58;;;;;;;10.10;4.47;;;;;;;;;;5057160;28;20033;-80
2021/09/01 11:57:25;;;;;;;9.40;3.75;;;;;;;;;;5057972;28;20442;-80
2021/09/01 11:59:51;;;;;;;11.75;4.32;;;;;;;;;;5059134;28;20083;-80
2021/09/01 12:02:31;;;;;;;8.05;4.25;;;;;;;;;;5057413;28;20389;-79
2021/09/01 12:04:58;;;;;;;6.90;3.55;;;;;;;;;;5040505;28;20486;-79
2021/09/01 12:07:29;;;;;;;9.32;4.47;;;;;;;;;;5055469;28;20037;-77
2021/09/01 12:10:05;;;;;;;11.07;4.07;;;;;;;;;;5038935;28;20445;-78
2021/09/01 12:12:40;;;;;;;9.88;4.00;;;;;;;;;;5017244;28;20057;-78
2021/09/01 12:15:14;;;;;;;7.63;3.65;;;;;;;;;;5017159;28;20026;-77
2021/09/01 12:17:59;;;;;;;8.93;3.92;;;;;;;;;;5033687;28;20037;-78
2021/09/01 12:20:25;;;;;;;7.82;3.67;;;;;;;;;;5034247;28;20037;-78
2021/09/01 12:22:51;;;;;;;13.63;4.45;;;;;;;;;;5018009;28;20398;-78
2021/09/01 12:25:22;;;;;;;8.60;4.25;;;;;;;;;;5018147;28;20091;-78
2021/09/01 12:28:10;;;;;;;10.55;4.40;;;;;;;;;;5034364;28;20044;-78
2021/09/01 12:30:39;;;;;;;7.82;3.95;;;;;;;;;;5036584;28;20506;-78
2021/09/01 12:33:14;;;;;;;7.85;3.88;;;;;;;;;;5034733;28;20049;-79
2021/09/01 12:35:41;;;;;;;11.43;4.85;;;;;;;;;;5018382;28;20040;-78
2021/09/01 12:38:07;;;;;;;13.10;3.40;;;;;;;;;;5035887;28;20119;-79
2021/09/01 12:40:38;;;;;;;9.63;4.07;;;;;;;;;;5054941;28;20087;-78
2021/09/01 12:43:08;;;;;;;7.10;3.78;;;;;;;;;;5054678;28;20037;-80
2021/09/01 12:45:35;;;;;;;8.63;3.72;;;;;;;;;;5038176;28;20064;-79
2021/09/01 12:48:04;;;;;;;12.00;4.07;;;;;;;;;;5037882;28;20032;-78
2021/09/01 12:50:43;;;;;;;17.70;4.60;;;;;;;;;;5055867;28;20040;-78
2021/09/01 12:53:20;;;;;;;13.50;4.90;;;;;;;;;;5037412;28;20130;-79
2021/09/01 12:55:46;;;;;;;11.30;3.97;;;;;;;;;;5054331;28;20090;-78
2021/09/01 12:58:12;;;;;;;13.57;5.70;;;;;;;;;;5055171;28;20041;-78
2021/09/01 13:00:39;;;;;;;18.55;5.45;;;;;;;;;;5037427;28;20060;-78
2021/09/01 13:03:05;;;;;;;11.45;4.35;;;;;;;;;;5037352;28;20033;-78
2021/09/01 13:05:30;;;;;;;8.45;3.72;;;;;;;;;;5054203;28;20090;-78
2021/09/01 13:07:57;;;;;;;7.82;3.80;;;;;;;;;;5054019;28;20394;-78
2021/09/01 13:10:22;;;;;;;8.18;3.92;;;;;;;;;;5053728;28;20040;-78
2021/09/01 13:12:53;;;;;;;7.53;3.55;;;;;;;;;;5037411;28;20501;-78
2021/09/01 13:15:19;;;;;;;8.30;3.13;;;;;;;;;;5037335;28;20387;-79
2021/09/01 13:17:45;;;;;;;6.55;3.40;;;;;;;;;;5055099;28;20070;-79
2021/09/01 13:20:11;;;;;;;6.18;3.40;;;;;;;;;;5037405;28;20482;-78
2021/09/01 13:22:38;;;;;;;6.85;3.53;;;;;;;;;;5037060;28;20107;-78
2021/09/01 13:25:05;;;;;;;10.73;3.65;;;;;;;;;;5037084;28;20029;-78
2021/09/01 13:27:33;;;;;;;6.35;3.25;;;;;;;;;;5054651;28;20039;-77
2021/09/01 13:29:58;;;;;;;8.25;3.78;;;;;;;;;;5037658;28;20041;-78
2021/09/01 13:32:24;;;;;;;7.85;3.10;;;;;;;;;;5036559;28;20102;-78
2021/09/01 13:34:50;;;;;;;11.50;3.30;;;;;;;;;;5037155;28;20131;-78
2021/09/01 13:37:15;;;;;;;7.30;3.38;;;;;;;;;;5037152;28;20037;-78
2021/09/01 13:39:41;;;;;;;8.75;3.30;;;;;;;;;;5040876;28;20391;-78
2021/09/01 13:42:10;;;;;;;11.18;4.28;;;;;;;;;;5017342;28;20432;-78
2021/09/01 13:44:37;;;;;;;9.85;3.60;;;;;;;;;;5017246;28;20037;-78
2021/09/01 13:47:02;;;;;;;10.57;3.80;;;;;;;;;;5033715;28;20052;-78
2021/09/01 13:49:28;;;;;;;9.77;3.97;;;;;;;;;;5033829;28;20434;-78
2021/09/01 13:51:54;;;;;;;7.90;3.33;;;;;;;;;;5017697;28;20472;-79
2021/09/01 13:54:25;;;;;;;11.98;5.32;;;;;;;;;;5034238;28;20065;-79
2021/09/01 13:56:50;;;;;;;6.93;3.20;;;;;;;;;;5034351;28;20091;-79
2021/09/01 13:59:17;;;;;;;6.97;3.45;;;;;;;;;;5018314;28;20446;-79
2021/09/01 14:01:43;;;;;;;6.35;3.17;;;;;;;;;;5034554;28;20128;-79
2021/09/01 14:04:10;;;;;;;9.85;3.83;;;;;;;;;;5034779;28;20073;-79
2021/09/01 14:06:37;;;;;;;5.97;3.28;;;;;;;;;;5018050;28;20040;-79
2021/09/01 14:09:06;;;;;;;5.60;3.13;;;;;;;;;;5027211;28;20029;-78
2021/09/01 14:11:31;;;;;;;11.38;3.55;;;;;;;;;;5055480;28;20036;-79
2021/09/01 14:13:57;;;;;;;8.57;3.25;;;;;;;;;;5054920;28;20130;-80
2021/09/01 14:16:24;;;;;;;9.57;3.55;;;;;;;;;;5056508;28;20031;-78
2021/09/01 14:18:51;;;;;;;8.27;3.38;;;;;;;;;;5038153;28;20406;-83
2021/09/01 14:21:19;;;;;;;9.85;4.10;;;;;;;;;;5038501;28;20045;-78
2021/09/01 14:23:45;;;;;;;8.88;3.80;;;;;;;;;;5043889;28;20409;-83
2021/09/01 14:26:11;;;;;;;5.50;3.30;;;;;;;;;;5063168;28;20056;-83
2021/09/01 14:28:38;;;;;;;6.85;3.55;;;;;;;;;;5043681;28;20041;-83
2021/09/01 14:31:04;;;;;;;6.13;3.20;;;;;;;;;;5060773;28;20025;-83
2021/09/01 14:33:30;;;;;;;8.13;3.63;;;;;;;;;;5044587;28;20056;-83
2021/09/01 14:35:55;;;;;;;13.45;3.53;;;;;;;;;;5061150;28;20044;-82
2021/09/01 14:38:21;;;;;;;9.45;3.50;;;;;;;;;;5060680;28;20033;-83